sensor_id;sensor_type;location;lat;lon;timestamp;P1;durP1;ratioP1;P2;durP2;ratioP2
27632;SDS011;15046;50.930;13.334;2022-08-04T00:01:20;4.18;;;2.30;;
27632;SDS011;15046;50.930;13.334;2022-08-04T00:04:04;4.90;;;2.55;;
27632;SDS011;15046;50.930;13.334;2022-08-04T00:12:13;5.15;;;2.60;;
27632;SDS011;15046;50.930;13.334;2022-08-04T00:14:46;5.95;;;2.38;;
27632;SDS011;15046;50.930;13.334;2022-08-04T00:17:13;4.40;;;2.60;;
27632;SDS011;15046;50.930;13.334;2022-08-04T00:19:44;3.90;;;2.40;;
27632;SDS011;15046;50.930;13.334;2022-08-04T00:22:12;7.40;;;2.60;;
27632;SDS011;15046;50.930;13.334;2022-08-04T00:24:40;7.03;;;2.83;;
27632;SDS011;15046;50.930;13.334;2022-08-04T00:27:06;4.95;;;2.60;;
27632;SDS011;15046;50.930;13.334;2022-08-04T00:29:33;5.75;;;2.17;;
27632;SDS011;15046;50.930;13.334;2022-08-04T00:32:02;5.33;;;2.30;;
27632;SDS011;15046;50.930;13.334;2022-08-04T00:34:29;6.38;;;2.50;;
27632;SDS011;15046;50.930;13.334;2022-08-04T00:36:57;3.70;;;2.40;;
27632;SDS011;15046;50.930;13.334;2022-08-04T00:39:24;4.45;;;2.22;;
27632;SDS011;15046;50.930;13.334;2022-08-04T00:42:06;4.47;;;2.17;;
27632;SDS011;15046;50.930;13.334;2022-08-04T00:50:19;7.13;;;2.10;;
27632;SDS011;15046;50.930;13.334;2022-08-04T00:58:22;4.03;;;2.40;;
27632;SDS011;15046;50.930;13.334;2022-08-04T01:06:43;3.53;;;2.22;;
27632;SDS011;15046;50.930;13.334;2022-08-04T01:12:16;4.97;;;2.20;;
27632;SDS011;15046;50.930;13.334;2022-08-04T01:20:02;7.22;;;2.70;;
27632;SDS011;15046;50.930;13.334;2022-08-04T01:22:41;4.38;;;2.60;;
27632;SDS011;15046;50.930;13.334;2022-08-04T01:28:22;6.13;;;1.90;;
27632;SDS011;15046;50.930;13.334;2022-08-04T01:31:40;3.90;;;2.30;;
27632;SDS011;15046;50.930;13.334;2022-08-04T01:34:12;4.95;;;2.38;;
27632;SDS011;15046;50.930;13.334;2022-08-04T01:36:46;5.70;;;2.50;;
27632;SDS011;15046;50.930;13.334;2022-08-04T01:39:23;3.67;;;2.55;;
27632;SDS011;15046;50.930;13.334;2022-08-04T01:42:07;3.60;;;2.25;;
27632;SDS011;15046;50.930;13.334;2022-08-04T01:44:34;3.22;;;2.10;;
27632;SDS011;15046;50.930;13.334;2022-08-04T01:47:02;4.40;;;2.70;;
27632;SDS011;15046;50.930;13.334;2022-08-04T01:49:28;4.13;;;2.10;;
27632;SDS011;15046;50.930;13.334;2022-08-04T01:51:55;6.60;;;2.60;;
27632;SDS011;15046;50.930;13.334;2022-08-04T01:54:22;9.60;;;2.47;;
27632;SDS011;15046;50.930;13.334;2022-08-04T01:56:49;3.05;;;2.10;;
27632;SDS011;15046;50.930;13.334;2022-08-04T01:59:19;4.13;;;2.58;;
27632;SDS011;15046;50.930;13.334;2022-08-04T02:01:45;4.40;;;2.60;;
27632;SDS011;15046;50.930;13.334;2022-08-04T02:04:13;6.45;;;2.72;;
27632;SDS011;15046;50.930;13.334;2022-08-04T02:10:03;5.15;;;2.55;;
27632;SDS011;15046;50.930;13.334;2022-08-04T02:18:05;7.43;;;2.85;;
27632;SDS011;15046;50.930;13.334;2022-08-04T02:20:37;3.10;;;2.20;;
27632;SDS011;15046;50.930;13.334;2022-08-04T02:23:06;5.47;;;2.42;;
27632;SDS011;15046;50.930;13.334;2022-08-04T02:31:13;6.93;;;2.53;;
27632;SDS011;15046;50.930;13.334;2022-08-04T02:36:34;3.60;;;2.25;;
27632;SDS011;15046;50.930;13.334;2022-08-04T02:39:05;5.05;;;2.00;;
27632;SDS011;15046;50.930;13.334;2022-08-04T02:41:32;5.18;;;2.72;;
27632;SDS011;15046;50.930;13.334;2022-08-04T02:44:01;6.72;;;2.65;;
27632;SDS011;15046;50.930;13.334;2022-08-04T02:46:32;5.78;;;2.85;;
27632;SDS011;15046;50.930;13.334;2022-08-04T02:49:07;4.60;;;2.70;;
27632;SDS011;15046;50.930;13.334;2022-08-04T02:51:34;3.70;;;2.30;;
27632;SDS011;15046;50.930;13.334;2022-08-04T02:54:04;5.97;;;2.60;;
27632;SDS011;15046;50.930;13.334;2022-08-04T02:56:31;4.28;;;2.53;;
27632;SDS011;15046;50.930;13.334;2022-08-04T02:58:59;4.95;;;2.50;;
27632;SDS011;15046;50.930;13.334;2022-08-04T03:01:26;4.75;;;2.40;;
27632;SDS011;15046;50.930;13.334;2022-08-04T03:04:26;7.43;;;2.40;;
27632;SDS011;15046;50.930;13.334;2022-08-04T03:13:57;3.80;;;2.30;;
27632;SDS011;15046;50.930;13.334;2022-08-04T03:24:36;4.20;;;2.40;;
27632;SDS011;15046;50.930;13.334;2022-08-04T03:27:25;3.70;;;2.20;;
27632;SDS011;15046;50.930;13.334;2022-08-04T03:33:00;5.00;;;2.55;;
27632;SDS011;15046;50.930;13.334;2022-08-04T03:41:20;8.65;;;2.60;;
27632;SDS011;15046;50.930;13.334;2022-08-04T03:47:34;5.95;;;2.53;;
27632;SDS011;15046;50.930;13.334;2022-08-04T04:25:02;4.68;;;2.40;;
27632;SDS011;15046;50.930;13.334;2022-08-04T04:31:16;5.43;;;2.47;;
27632;SDS011;15046;50.930;13.334;2022-08-04T04:33:34;4.65;;;2.50;;
27632;SDS011;15046;50.930;13.334;2022-08-04T04:39:17;6.47;;;2.65;;
27632;SDS011;15046;50.930;13.334;2022-08-04T04:42:06;6.65;;;2.75;;
27632;SDS011;15046;50.930;13.334;2022-08-04T04:47:48;5.63;;;2.75;;
27632;SDS011;15046;50.930;13.334;2022-08-04T04:50:30;4.07;;;2.60;;
27632;SDS011;15046;50.930;13.334;2022-08-04T04:55:59;6.68;;;2.90;;
27632;SDS011;15046;50.930;13.334;2022-08-04T04:58:33;4.82;;;2.55;;
27632;SDS011;15046;50.930;13.334;2022-08-04T05:15:23;5.20;;;2.10;;
27632;SDS011;15046;50.930;13.334;2022-08-04T05:17:54;3.70;;;2.35;;
27632;SDS011;15046;50.930;13.334;2022-08-04T05:20:26;7.20;;;3.10;;
27632;SDS011;15046;50.930;13.334;2022-08-04T05:23:16;6.70;;;2.78;;
27632;SDS011;15046;50.930;13.334;2022-08-04T05:25:50;8.82;;;2.88;;
27632;SDS011;15046;50.930;13.334;2022-08-04T05:28:43;5.38;;;2.40;;
27632;SDS011;15046;50.930;13.334;2022-08-04T05:31:16;9.50;;;2.60;;
27632;SDS011;15046;50.930;13.334;2022-08-04T05:33:56;3.80;;;2.17;;
27632;SDS011;15046;50.930;13.334;2022-08-04T05:36:33;6.85;;;3.17;;
27632;SDS011;15046;50.930;13.334;2022-08-04T05:39:05;5.60;;;3.10;;
27632;SDS011;15046;50.930;13.334;2022-08-04T05:41:34;6.93;;;2.72;;
27632;SDS011;15046;50.930;13.334;2022-08-04T05:44:01;6.50;;;2.60;;
27632;SDS011;15046;50.930;13.334;2022-08-04T05:46:28;4.32;;;2.30;;
27632;SDS011;15046;50.930;13.334;2022-08-04T05:48:54;4.95;;;2.65;;
27632;SDS011;15046;50.930;13.334;2022-08-04T05:51:20;3.85;;;2.35;;
27632;SDS011;15046;50.930;13.334;2022-08-04T05:53:47;3.70;;;2.17;;
27632;SDS011;15046;50.930;13.334;2022-08-04T05:56:15;9.88;;;2.50;;
27632;SDS011;15046;50.930;13.334;2022-08-04T05:58:41;8.60;;;3.60;;
27632;SDS011;15046;50.930;13.334;2022-08-04T06:01:09;3.70;;;2.28;;
27632;SDS011;15046;50.930;13.334;2022-08-04T06:03:36;19.23;;;2.35;;
27632;SDS011;15046;50.930;13.334;2022-08-04T06:06:04;4.95;;;2.10;;
27632;SDS011;15046;50.930;13.334;2022-08-04T06:08:31;4.20;;;2.22;;
27632;SDS011;15046;50.930;13.334;2022-08-04T06:10:58;6.75;;;2.03;;
27632;SDS011;15046;50.930;13.334;2022-08-04T06:13:29;4.88;;;2.13;;
27632;SDS011;15046;50.930;13.334;2022-08-04T06:16:01;3.10;;;1.70;;
27632;SDS011;15046;50.930;13.334;2022-08-04T06:18:31;4.88;;;2.10;;
27632;SDS011;15046;50.930;13.334;2022-08-04T06:21:01;5.45;;;2.00;;
27632;SDS011;15046;50.930;13.334;2022-08-04T06:28:26;4.30;;;2.47;;
27632;SDS011;15046;50.930;13.334;2022-08-04T06:30:54;4.47;;;1.83;;
27632;SDS011;15046;50.930;13.334;2022-08-04T06:33:26;4.35;;;1.90;;
27632;SDS011;15046;50.930;13.334;2022-08-04T06:35:59;4.45;;;2.30;;
27632;SDS011;15046;50.930;13.334;2022-08-04T06:38:27;3.03;;;1.92;;
27632;SDS011;15046;50.930;13.334;2022-08-04T06:40:55;5.43;;;2.22;;
27632;SDS011;15046;50.930;13.334;2022-08-04T06:43:27;3.97;;;2.20;;
27632;SDS011;15046;50.930;13.334;2022-08-04T06:45:56;4.13;;;2.30;;
27632;SDS011;15046;50.930;13.334;2022-08-04T06:48:23;6.32;;;2.10;;
27632;SDS011;15046;50.930;13.334;2022-08-04T06:53:19;5.05;;;2.50;;
27632;SDS011;15046;50.930;13.334;2022-08-04T06:55:45;5.90;;;2.20;;
27632;SDS011;15046;50.930;13.334;2022-08-04T06:58:12;7.22;;;2.20;;
27632;SDS011;15046;50.930;13.334;2022-08-04T07:00:39;4.10;;;2.60;;
27632;SDS011;15046;50.930;13.334;2022-08-04T07:03:07;7.07;;;2.38;;
27632;SDS011;15046;50.930;13.334;2022-08-04T07:05:34;6.68;;;2.28;;
27632;SDS011;15046;50.930;13.334;2022-08-04T07:08:01;5.88;;;2.03;;
27632;SDS011;15046;50.930;13.334;2022-08-04T07:10:28;7.85;;;2.03;;
27632;SDS011;15046;50.930;13.334;2022-08-04T07:12:56;11.73;;;2.20;;
27632;SDS011;15046;50.930;13.334;2022-08-04T07:15:23;6.38;;;2.20;;
27632;SDS011;15046;50.930;13.334;2022-08-04T07:17:50;5.70;;;2.03;;
27632;SDS011;15046;50.930;13.334;2022-08-04T07:20:16;5.45;;;2.22;;
27632;SDS011;15046;50.930;13.334;2022-08-04T07:22:43;3.50;;;2.00;;
27632;SDS011;15046;50.930;13.334;2022-08-04T07:25:12;4.30;;;1.60;;
27632;SDS011;15046;50.930;13.334;2022-08-04T07:27:40;3.70;;;2.20;;
27632;SDS011;15046;50.930;13.334;2022-08-04T07:30:07;2.78;;;1.55;;
27632;SDS011;15046;50.930;13.334;2022-08-04T07:32:33;4.68;;;2.08;;
27632;SDS011;15046;50.930;13.334;2022-08-04T07:35:01;3.90;;;2.17;;
27632;SDS011;15046;50.930;13.334;2022-08-04T07:37:28;5.80;;;1.95;;
27632;SDS011;15046;50.930;13.334;2022-08-04T07:39:54;3.85;;;1.73;;
27632;SDS011;15046;50.930;13.334;2022-08-04T07:42:20;6.20;;;2.05;;
27632;SDS011;15046;50.930;13.334;2022-08-04T07:44:46;4.97;;;2.00;;
27632;SDS011;15046;50.930;13.334;2022-08-04T07:47:13;4.85;;;1.98;;
27632;SDS011;15046;50.930;13.334;2022-08-04T07:49:42;5.45;;;1.90;;
27632;SDS011;15046;50.930;13.334;2022-08-04T07:52:08;4.55;;;2.00;;
27632;SDS011;15046;50.930;13.334;2022-08-04T07:54:34;2.47;;;1.88;;
27632;SDS011;15046;50.930;13.334;2022-08-04T07:57:02;3.78;;;2.03;;
27632;SDS011;15046;50.930;13.334;2022-08-04T07:59:28;5.40;;;2.00;;
27632;SDS011;15046;50.930;13.334;2022-08-04T08:01:54;4.30;;;2.03;;
27632;SDS011;15046;50.930;13.334;2022-08-04T08:04:24;3.38;;;1.80;;
27632;SDS011;15046;50.930;13.334;2022-08-04T08:06:51;3.97;;;2.22;;
27632;SDS011;15046;50.930;13.334;2022-08-04T08:09:17;4.82;;;2.05;;
27632;SDS011;15046;50.930;13.334;2022-08-04T08:11:48;2.50;;;1.58;;
27632;SDS011;15046;50.930;13.334;2022-08-04T08:14:16;4.60;;;1.80;;
27632;SDS011;15046;50.930;13.334;2022-08-04T08:16:43;3.30;;;1.70;;
27632;SDS011;15046;50.930;13.334;2022-08-04T08:19:10;3.63;;;1.83;;
27632;SDS011;15046;50.930;13.334;2022-08-04T08:21:36;5.70;;;1.50;;
27632;SDS011;15046;50.930;13.334;2022-08-04T08:24:03;4.47;;;1.50;;
27632;SDS011;15046;50.930;13.334;2022-08-04T08:26:29;3.45;;;1.90;;
27632;SDS011;15046;50.930;13.334;2022-08-04T08:28:55;2.90;;;1.90;;
27632;SDS011;15046;50.930;13.334;2022-08-04T08:31:21;5.13;;;2.05;;
27632;SDS011;15046;50.930;13.334;2022-08-04T08:33:48;5.40;;;1.75;;
27632;SDS011;15046;50.930;13.334;2022-08-04T08:36:18;3.25;;;1.70;;
27632;SDS011;15046;50.930;13.334;2022-08-04T08:46:54;2.78;;;1.70;;
27632;SDS011;15046;50.930;13.334;2022-08-04T09:00:46;4.40;;;1.65;;
27632;SDS011;15046;50.930;13.334;2022-08-04T09:11:49;6.18;;;2.20;;
27632;SDS011;15046;50.930;13.334;2022-08-04T09:14:24;6.30;;;1.70;;
27632;SDS011;15046;50.930;13.334;2022-08-04T09:17:00;4.72;;;1.77;;
27632;SDS011;15046;50.930;13.334;2022-08-04T09:19:33;7.43;;;2.08;;
27632;SDS011;15046;50.930;13.334;2022-08-04T09:25:13;5.18;;;1.90;;
27632;SDS011;15046;50.930;13.334;2022-08-04T09:27:56;3.47;;;1.90;;
27632;SDS011;15046;50.930;13.334;2022-08-04T09:30:38;4.20;;;1.58;;
27632;SDS011;15046;50.930;13.334;2022-08-04T09:33:24;4.18;;;1.90;;
27632;SDS011;15046;50.930;13.334;2022-08-04T09:38:45;4.53;;;1.80;;
27632;SDS011;15046;50.930;13.334;2022-08-04T09:44:12;6.47;;;1.90;;
27632;SDS011;15046;50.930;13.334;2022-08-04T09:46:56;3.60;;;1.73;;
27632;SDS011;15046;50.930;13.334;2022-08-04T09:49:37;4.85;;;2.22;;
27632;SDS011;15046;50.930;13.334;2022-08-04T09:54:58;3.10;;;2.10;;
27632;SDS011;15046;50.930;13.334;2022-08-04T10:00:55;4.75;;;2.00;;
27632;SDS011;15046;50.930;13.334;2022-08-04T10:03:31;3.95;;;1.95;;
27632;SDS011;15046;50.930;13.334;2022-08-04T10:17:00;4.80;;;2.10;;
27632;SDS011;15046;50.930;13.334;2022-08-04T10:20:06;2.88;;;1.92;;
27632;SDS011;15046;50.930;13.334;2022-08-04T10:22:56;4.18;;;2.10;;
27632;SDS011;15046;50.930;13.334;2022-08-04T10:25:44;4.97;;;2.60;;
27632;SDS011;15046;50.930;13.334;2022-08-04T10:28:26;6.28;;;2.53;;
27632;SDS011;15046;50.930;13.334;2022-08-04T10:30:58;5.13;;;2.05;;
27632;SDS011;15046;50.930;13.334;2022-08-04T10:33:32;5.07;;;1.95;;
27632;SDS011;15046;50.930;13.334;2022-08-04T10:36:08;3.13;;;2.35;;
27632;SDS011;15046;50.930;13.334;2022-08-04T10:41:09;18.92;;;2.80;;
27632;SDS011;15046;50.930;13.334;2022-08-04T10:44:11;4.13;;;2.40;;
27632;SDS011;15046;50.930;13.334;2022-08-04T10:46:59;3.22;;;1.92;;
27632;SDS011;15046;50.930;13.334;2022-08-04T10:49:39;4.93;;;2.10;;
27632;SDS011;15046;50.930;13.334;2022-08-04T10:52:13;4.20;;;2.20;;
27632;SDS011;15046;50.930;13.334;2022-08-04T10:54:50;3.90;;;2.20;;
27632;SDS011;15046;50.930;13.334;2022-08-04T10:57:38;4.25;;;2.50;;
27632;SDS011;15046;50.930;13.334;2022-08-04T11:00:12;4.17;;;2.60;;
27632;SDS011;15046;50.930;13.334;2022-08-04T11:05:53;5.55;;;2.50;;
27632;SDS011;15046;50.930;13.334;2022-08-04T11:08:38;3.47;;;2.20;;
27632;SDS011;15046;50.930;13.334;2022-08-04T11:13:44;3.10;;;2.00;;
27632;SDS011;15046;50.930;13.334;2022-08-04T11:16:18;3.17;;;2.20;;
27632;SDS011;15046;50.930;13.334;2022-08-04T11:18:53;6.05;;;2.22;;
27632;SDS011;15046;50.930;13.334;2022-08-04T11:21:43;6.32;;;2.28;;
27632;SDS011;15046;50.930;13.334;2022-08-04T11:24:18;2.83;;;2.08;;
27632;SDS011;15046;50.930;13.334;2022-08-04T11:26:59;3.88;;;2.72;;
27632;SDS011;15046;50.930;13.334;2022-08-04T11:32:25;3.10;;;2.05;;
27632;SDS011;15046;50.930;13.334;2022-08-04T11:35:12;3.60;;;2.42;;
27632;SDS011;15046;50.930;13.334;2022-08-04T11:37:52;5.18;;;2.38;;
27632;SDS011;15046;50.930;13.334;2022-08-04T11:40:36;3.53;;;1.98;;
27632;SDS011;15046;50.930;13.334;2022-08-04T11:43:15;4.63;;;2.58;;
27632;SDS011;15046;50.930;13.334;2022-08-04T11:45:59;3.63;;;2.20;;
27632;SDS011;15046;50.930;13.334;2022-08-04T11:48:33;4.57;;;2.15;;
27632;SDS011;15046;50.930;13.334;2022-08-04T11:51:02;5.38;;;2.63;;
27632;SDS011;15046;50.930;13.334;2022-08-04T11:53:31;5.55;;;2.20;;
27632;SDS011;15046;50.930;13.334;2022-08-04T11:56:00;5.32;;;2.60;;
27632;SDS011;15046;50.930;13.334;2022-08-04T11:58:27;2.67;;;1.83;;
27632;SDS011;15046;50.930;13.334;2022-08-04T12:04:24;4.60;;;2.50;;
27632;SDS011;15046;50.930;13.334;2022-08-04T12:07:18;4.30;;;2.30;;
27632;SDS011;15046;50.930;13.334;2022-08-04T12:09:51;6.70;;;2.13;;
27632;SDS011;15046;50.930;13.334;2022-08-04T12:12:30;3.63;;;1.90;;
27632;SDS011;15046;50.930;13.334;2022-08-04T12:15:30;3.40;;;2.03;;
27632;SDS011;15046;50.930;13.334;2022-08-04T12:18:09;3.85;;;2.50;;
27632;SDS011;15046;50.930;13.334;2022-08-04T12:20:47;2.97;;;1.92;;
27632;SDS011;15046;50.930;13.334;2022-08-04T12:23:48;5.07;;;2.55;;
27632;SDS011;15046;50.930;13.334;2022-08-04T12:26:18;5.28;;;2.28;;
27632;SDS011;15046;50.930;13.334;2022-08-04T12:28:47;3.67;;;2.25;;
27632;SDS011;15046;50.930;13.334;2022-08-04T12:36:59;5.05;;;2.75;;
27632;SDS011;15046;50.930;13.334;2022-08-04T12:39:28;4.05;;;1.85;;
27632;SDS011;15046;50.930;13.334;2022-08-04T12:44:47;4.63;;;2.28;;
27632;SDS011;15046;50.930;13.334;2022-08-04T12:47:20;4.88;;;2.60;;
27632;SDS011;15046;50.930;13.334;2022-08-04T12:49:49;3.30;;;2.13;;
27632;SDS011;15046;50.930;13.334;2022-08-04T12:52:17;3.67;;;2.08;;
27632;SDS011;15046;50.930;13.334;2022-08-04T12:54:45;5.90;;;2.30;;
27632;SDS011;15046;50.930;13.334;2022-08-04T12:57:16;3.83;;;2.20;;
27632;SDS011;15046;50.930;13.334;2022-08-04T12:59:43;5.53;;;2.28;;
27632;SDS011;15046;50.930;13.334;2022-08-04T13:02:15;5.05;;;2.45;;
27632;SDS011;15046;50.930;13.334;2022-08-04T13:04:51;3.00;;;2.17;;
27632;SDS011;15046;50.930;13.334;2022-08-04T13:07:19;2.97;;;2.30;;
27632;SDS011;15046;50.930;13.334;2022-08-04T13:09:47;6.97;;;2.20;;
27632;SDS011;15046;50.930;13.334;2022-08-04T13:12:16;2.97;;;2.30;;
27632;SDS011;15046;50.930;13.334;2022-08-04T13:14:49;4.78;;;1.85;;
27632;SDS011;15046;50.930;13.334;2022-08-04T13:17:16;4.60;;;2.10;;
27632;SDS011;15046;50.930;13.334;2022-08-04T13:19:47;3.80;;;2.10;;
27632;SDS011;15046;50.930;13.334;2022-08-04T13:22:26;8.13;;;2.42;;
27632;SDS011;15046;50.930;13.334;2022-08-04T13:24:57;8.73;;;2.40;;
27632;SDS011;15046;50.930;13.334;2022-08-04T13:27:24;4.82;;;2.30;;
27632;SDS011;15046;50.930;13.334;2022-08-04T13:29:53;3.40;;;2.15;;
27632;SDS011;15046;50.930;13.334;2022-08-04T13:32:21;4.13;;;2.28;;
27632;SDS011;15046;50.930;13.334;2022-08-04T13:34:50;4.35;;;2.20;;
27632;SDS011;15046;50.930;13.334;2022-08-04T13:37:18;4.45;;;2.40;;
27632;SDS011;15046;50.930;13.334;2022-08-04T13:39:48;3.15;;;2.10;;
27632;SDS011;15046;50.930;13.334;2022-08-04T13:42:15;4.00;;;2.17;;
27632;SDS011;15046;50.930;13.334;2022-08-04T13:44:44;4.53;;;2.33;;
27632;SDS011;15046;50.930;13.334;2022-08-04T13:47:13;4.28;;;2.30;;
27632;SDS011;15046;50.930;13.334;2022-08-04T13:52:34;3.17;;;1.98;;
27632;SDS011;15046;50.930;13.334;2022-08-04T13:55:00;5.90;;;2.50;;
27632;SDS011;15046;50.930;13.334;2022-08-04T13:57:27;5.45;;;2.40;;
27632;SDS011;15046;50.930;13.334;2022-08-04T14:00:00;4.72;;;2.42;;
27632;SDS011;15046;50.930;13.334;2022-08-04T14:02:38;4.13;;;2.20;;
27632;SDS011;15046;50.930;13.334;2022-08-04T14:05:16;4.85;;;2.33;;
27632;SDS011;15046;50.930;13.334;2022-08-04T14:07:49;3.30;;;1.90;;
27632;SDS011;15046;50.930;13.334;2022-08-04T14:10:20;5.30;;;2.40;;
27632;SDS011;15046;50.930;13.334;2022-08-04T14:12:48;7.25;;;2.45;;
27632;SDS011;15046;50.930;13.334;2022-08-04T14:15:28;3.15;;;2.00;;
27632;SDS011;15046;50.930;13.334;2022-08-04T14:20:57;3.45;;;2.10;;
27632;SDS011;15046;50.930;13.334;2022-08-04T14:23:26;4.22;;;2.35;;
27632;SDS011;15046;50.930;13.334;2022-08-04T14:25:53;3.30;;;1.90;;
27632;SDS011;15046;50.930;13.334;2022-08-04T14:28:26;6.07;;;2.80;;
27632;SDS011;15046;50.930;13.334;2022-08-04T14:31:07;3.20;;;2.17;;
27632;SDS011;15046;50.930;13.334;2022-08-04T14:33:35;4.68;;;2.50;;
27632;SDS011;15046;50.930;13.334;2022-08-04T14:36:02;6.20;;;2.42;;
27632;SDS011;15046;50.930;13.334;2022-08-04T14:41:26;5.35;;;2.33;;
27632;SDS011;15046;50.930;13.334;2022-08-04T14:43:55;2.83;;;1.90;;
27632;SDS011;15046;50.930;13.334;2022-08-04T14:46:23;4.82;;;2.25;;
27632;SDS011;15046;50.930;13.334;2022-08-04T14:49:00;6.50;;;2.37;;
27632;SDS011;15046;50.930;13.334;2022-08-04T14:51:35;4.80;;;2.20;;
27632;SDS011;15046;50.930;13.334;2022-08-04T14:54:03;4.97;;;2.28;;
27632;SDS011;15046;50.930;13.334;2022-08-04T14:56:39;4.50;;;2.20;;
27632;SDS011;15046;50.930;13.334;2022-08-04T14:59:09;7.40;;;2.60;;
27632;SDS011;15046;50.930;13.334;2022-08-04T15:01:38;5.32;;;2.47;;
27632;SDS011;15046;50.930;13.334;2022-08-04T15:04:06;4.75;;;2.40;;
27632;SDS011;15046;50.930;13.334;2022-08-04T15:06:33;4.20;;;2.22;;
27632;SDS011;15046;50.930;13.334;2022-08-04T15:09:01;3.90;;;2.50;;
27632;SDS011;15046;50.930;13.334;2022-08-04T15:11:31;5.60;;;2.60;;
27632;SDS011;15046;50.930;13.334;2022-08-04T15:13:57;8.48;;;2.30;;
27632;SDS011;15046;50.930;13.334;2022-08-04T15:16:24;8.52;;;2.40;;
27632;SDS011;15046;50.930;13.334;2022-08-04T15:18:52;3.42;;;2.00;;
27632;SDS011;15046;50.930;13.334;2022-08-04T15:21:19;5.45;;;2.67;;
27632;SDS011;15046;50.930;13.334;2022-08-04T15:23:46;5.35;;;2.50;;
27632;SDS011;15046;50.930;13.334;2022-08-04T15:26:22;4.97;;;2.53;;
27632;SDS011;15046;50.930;13.334;2022-08-04T15:28:52;4.75;;;2.10;;
27632;SDS011;15046;50.930;13.334;2022-08-04T15:31:22;3.83;;;2.20;;
27632;SDS011;15046;50.930;13.334;2022-08-04T15:33:50;4.43;;;2.10;;
27632;SDS011;15046;50.930;13.334;2022-08-04T15:39:32;2.72;;;2.05;;
27632;SDS011;15046;50.930;13.334;2022-08-04T15:42:09;3.47;;;2.55;;
27632;SDS011;15046;50.930;13.334;2022-08-04T15:47:28;3.38;;;2.10;;
27632;SDS011;15046;50.930;13.334;2022-08-04T15:50:10;2.70;;;2.00;;
27632;SDS011;15046;50.930;13.334;2022-08-04T15:55:34;5.03;;;2.33;;
27632;SDS011;15046;50.930;13.334;2022-08-04T15:58:03;3.88;;;2.17;;
27632;SDS011;15046;50.930;13.334;2022-08-04T16:06:42;3.63;;;2.00;;
27632;SDS011;15046;50.930;13.334;2022-08-04T16:16:30;4.38;;;2.15;;
27632;SDS011;15046;50.930;13.334;2022-08-04T16:19:16;3.75;;;2.20;;
27632;SDS011;15046;50.930;13.334;2022-08-04T16:21:55;3.20;;;2.15;;
27632;SDS011;15046;50.930;13.334;2022-08-04T16:27:08;3.22;;;2.20;;
27632;SDS011;15046;50.930;13.334;2022-08-04T16:29:39;4.97;;;2.10;;
27632;SDS011;15046;50.930;13.334;2022-08-04T16:34:48;3.70;;;2.25;;
27632;SDS011;15046;50.930;13.334;2022-08-04T16:37:18;3.53;;;2.30;;
27632;SDS011;15046;50.930;13.334;2022-08-04T16:39:45;4.22;;;2.45;;
27632;SDS011;15046;50.930;13.334;2022-08-04T16:52:50;4.03;;;2.10;;
27632;SDS011;15046;50.930;13.334;2022-08-04T16:55:18;4.30;;;2.33;;
27632;SDS011;15046;50.930;13.334;2022-08-04T16:57:48;7.18;;;2.55;;
27632;SDS011;15046;50.930;13.334;2022-08-04T17:00:27;3.05;;;2.10;;
27632;SDS011;15046;50.930;13.334;2022-08-04T17:02:58;4.30;;;2.45;;
27632;SDS011;15046;50.930;13.334;2022-08-04T17:05:30;4.07;;;2.30;;
27632;SDS011;15046;50.930;13.334;2022-08-04T17:07:58;4.10;;;2.63;;
27632;SDS011;15046;50.930;13.334;2022-08-04T17:10:39;3.10;;;2.22;;
27632;SDS011;15046;50.930;13.334;2022-08-04T17:15:50;6.05;;;2.58;;
27632;SDS011;15046;50.930;13.334;2022-08-04T17:18:20;7.38;;;2.90;;
27632;SDS011;15046;50.930;13.334;2022-08-04T17:20:51;4.35;;;2.40;;
27632;SDS011;15046;50.930;13.334;2022-08-04T17:23:26;5.35;;;2.20;;
27632;SDS011;15046;50.930;13.334;2022-08-04T17:25:55;5.22;;;2.53;;
27632;SDS011;15046;50.930;13.334;2022-08-04T17:28:23;3.65;;;2.40;;
27632;SDS011;15046;50.930;13.334;2022-08-04T17:30:50;3.67;;;2.47;;
27632;SDS011;15046;50.930;13.334;2022-08-04T17:33:21;5.72;;;2.85;;
27632;SDS011;15046;50.930;13.334;2022-08-04T17:35:50;5.45;;;2.78;;
27632;SDS011;15046;50.930;13.334;2022-08-04T17:38:17;4.85;;;2.30;;
27632;SDS011;15046;50.930;13.334;2022-08-04T17:49:10;5.53;;;2.80;;
27632;SDS011;15046;50.930;13.334;2022-08-04T17:51:47;4.65;;;2.42;;
27632;SDS011;15046;50.930;13.334;2022-08-04T17:54:15;3.80;;;2.60;;
27632;SDS011;15046;50.930;13.334;2022-08-04T18:04:26;4.13;;;2.50;;
27632;SDS011;15046;50.930;13.334;2022-08-04T18:07:11;4.72;;;2.60;;
27632;SDS011;15046;50.930;13.334;2022-08-04T18:12:21;6.28;;;2.70;;
27632;SDS011;15046;50.930;13.334;2022-08-04T18:15:39;4.38;;;2.63;;
27632;SDS011;15046;50.930;13.334;2022-08-04T18:17:49;5.50;;;3.05;;
27632;SDS011;15046;50.930;13.334;2022-08-04T18:20:19;6.38;;;2.88;;
27632;SDS011;15046;50.930;13.334;2022-08-04T18:22:48;6.47;;;2.72;;
27632;SDS011;15046;50.930;13.334;2022-08-04T18:25:15;6.35;;;3.38;;
27632;SDS011;15046;50.930;13.334;2022-08-04T18:27:48;5.90;;;3.45;;
27632;SDS011;15046;50.930;13.334;2022-08-04T18:30:19;5.13;;;3.10;;
27632;SDS011;15046;50.930;13.334;2022-08-04T18:32:50;4.88;;;3.10;;
27632;SDS011;15046;50.930;13.334;2022-08-04T18:35:19;7.82;;;3.47;;
27632;SDS011;15046;50.930;13.334;2022-08-04T18:37:48;6.80;;;3.42;;
27632;SDS011;15046;50.930;13.334;2022-08-04T18:40:17;8.32;;;3.20;;
27632;SDS011;15046;50.930;13.334;2022-08-04T18:42:43;4.88;;;2.95;;
27632;SDS011;15046;50.930;13.334;2022-08-04T18:45:09;7.68;;;3.25;;
27632;SDS011;15046;50.930;13.334;2022-08-04T18:47:37;9.90;;;3.90;;
27632;SDS011;15046;50.930;13.334;2022-08-04T18:50:09;6.65;;;3.40;;
27632;SDS011;15046;50.930;13.334;2022-08-04T18:52:35;7.60;;;3.00;;
27632;SDS011;15046;50.930;13.334;2022-08-04T18:55:01;5.10;;;3.20;;
27632;SDS011;15046;50.930;13.334;2022-08-04T18:57:28;12.88;;;3.42;;
27632;SDS011;15046;50.930;13.334;2022-08-04T18:59:55;5.63;;;2.60;;
27632;SDS011;15046;50.930;13.334;2022-08-04T19:02:22;7.05;;;3.10;;
27632;SDS011;15046;50.930;13.334;2022-08-04T19:04:48;6.75;;;2.92;;
27632;SDS011;15046;50.930;13.334;2022-08-04T19:07:14;10.50;;;2.88;;
27632;SDS011;15046;50.930;13.334;2022-08-04T19:09:41;8.05;;;3.03;;
27632;SDS011;15046;50.930;13.334;2022-08-04T19:12:08;5.75;;;2.88;;
27632;SDS011;15046;50.930;13.334;2022-08-04T19:14:34;5.75;;;2.83;;
27632;SDS011;15046;50.930;13.334;2022-08-04T19:17:00;7.63;;;3.00;;
27632;SDS011;15046;50.930;13.334;2022-08-04T19:19:27;5.55;;;2.90;;
27632;SDS011;15046;50.930;13.334;2022-08-04T19:21:53;5.43;;;2.65;;
27632;SDS011;15046;50.930;13.334;2022-08-04T19:24:19;7.22;;;2.85;;
27632;SDS011;15046;50.930;13.334;2022-08-04T19:26:45;9.02;;;3.08;;
27632;SDS011;15046;50.930;13.334;2022-08-04T19:29:11;5.63;;;2.55;;
27632;SDS011;15046;50.930;13.334;2022-08-04T19:31:42;5.65;;;2.90;;
27632;SDS011;15046;50.930;13.334;2022-08-04T19:34:08;5.75;;;2.33;;
27632;SDS011;15046;50.930;13.334;2022-08-04T19:36:34;8.75;;;3.00;;
27632;SDS011;15046;50.930;13.334;2022-08-04T19:39:02;6.47;;;2.70;;
27632;SDS011;15046;50.930;13.334;2022-08-04T19:41:31;6.72;;;2.80;;
27632;SDS011;15046;50.930;13.334;2022-08-04T19:44:00;7.33;;;2.80;;
27632;SDS011;15046;50.930;13.334;2022-08-04T19:46:30;9.18;;;2.30;;
27632;SDS011;15046;50.930;13.334;2022-08-04T19:48:56;4.93;;;2.78;;
27632;SDS011;15046;50.930;13.334;2022-08-04T19:51:23;5.70;;;2.40;;
27632;SDS011;15046;50.930;13.334;2022-08-04T19:53:49;5.03;;;2.53;;